Terminal Aerodrome Forecast
Issued by NWS

Home | Current Version | Previous Version | Text Only | Print | Product List | Glossary On
Versions: 1 2 3 4 5 6 7 8 9 10 11 12 13 14 15 16
000
FTUS43 KGRB 251131
TAFMTW
TAF
KMTW 251131Z 2512/2612 15009KT P6SM SCT250
     FM251400 15011G16KT P6SM SCT150
     FM251700 15012G17KT P6SM BKN200
     FM252300 14007KT P6SM BKN110
     FM260200 12007KT P6SM OVC100 WS016/16035KT
     FM260500 14009KT P6SM -SHRA OVC070 WS012/17040KT=

USA.gov is the U.S. government's official web portal to all federal, state and local government web resources and services.